Time;durP1;ratioP1;P1;durP2;ratioP2;P2;SDS_P1;SDS_P2;PMS_P1;PMS_P2;Temp;Humidity;BMP_temperature;BMP_pressure;BME280_temperature;BME280_humidity;BME280_pressure;Samples;Min_cycle;Max_cycle;Signal;HPM_P1;HPM_P2
2022/05/10 00:00:00;;;;;;;;;;;;;;;18.72;61.58;101428.28;7402791;19;1847;-37
2022/05/10 00:02:29;;;;;;;;;;;;;;;18.74;61.83;101420.97;7403765;19;1734;-37
2022/05/10 00:04:57;;;;;;;;;;;;;;;18.78;61.35;101430.47;7402428;19;1811;-37
2022/05/10 00:07:25;;;;;;;;;;;;;;;18.70;61.59;101423.03;7403110;19;1719;-37
2022/05/10 00:09:54;;;;;;;;;;;;;;;18.72;61.34;101417.56;7403068;19;1922;-37
2022/05/10 00:12:24;;;;;;;;;;;;;;;18.71;61.55;101416.72;7402296;19;1947;-37
2022/05/10 00:14:53;;;;;;;;;;;;;;;18.72;61.50;101409.53;7402136;19;1893;-37
2022/05/10 00:17:25;;;;;;;;;;;;;;;18.71;61.39;101421.22;7401563;19;1846;-38
2022/05/10 00:19:53;;;;;;;;;;;;;;;18.74;61.85;101412.94;7402212;19;1726;-37
2022/05/10 00:22:22;;;;;;;;;;;;;;;18.71;62.11;101419.38;7403481;19;945;-37
2022/05/10 00:24:50;;;;;;;;;;;;;;;18.72;61.69;101412.19;7401231;19;1781;-37
2022/05/10 00:27:18;;;;;;;;;;;;;;;18.72;61.99;101428.28;7402202;19;1943;-37
2022/05/10 00:29:49;;;;;;;;;;;;;;;18.76;62.14;101432.44;7400389;19;1867;-37
2022/05/10 00:32:17;;;;;;;;;;;;;;;18.72;61.70;101422.91;7402381;19;1818;-37
2022/05/10 00:34:47;;;;;;;;;;;;;;;18.70;61.95;101425.72;7401624;19;1492;-37
2022/05/10 00:37:16;;;;;;;;;;;;;;;18.72;61.76;101417.56;7401979;19;1861;-37
2022/05/10 00:39:45;;;;;;;;;;;;;;;18.68;61.68;101428.53;7400325;19;1802;-37
2022/05/10 00:42:18;;;;;;;;;;;;;;;18.72;61.66;101423.78;7401059;19;1774;-37
2022/05/10 00:44:50;;;;;;;;;;;;;;;18.69;61.50;101424.00;7401357;19;2031;-37
2022/05/10 00:47:21;;;;;;;;;;;;;;;18.72;61.23;101417.56;7401976;19;1916;-37
2022/05/10 00:49:55;;;;;;;;;;;;;;;18.72;61.00;101406.84;7400364;19;1506;-37
2022/05/10 00:52:26;;;;;;;;;;;;;;;18.69;61.04;101413.31;7402689;19;1048;-37
2022/05/10 00:54:58;;;;;;;;;;;;;;;18.66;61.16;101408.16;7399557;19;1659;-37
2022/05/10 00:57:31;;;;;;;;;;;;;;;18.73;61.13;101419.28;7400978;19;1928;-37
2022/05/10 01:00:05;;;;;;;;;;;;;;;18.67;61.36;101404.53;7401175;19;1819;-37
2022/05/10 01:02:40;;;;;;;;;;;;;;;18.67;60.91;101421.44;7401073;19;1976;-38
2022/05/10 01:05:14;;;;;;;;;;;;;;;18.70;61.27;101415.00;7399966;19;1946;-37
2022/05/10 01:07:49;;;;;;;;;;;;;;;18.67;60.93;101400.00;7400844;19;2048;-37
2022/05/10 01:10:22;;;;;;;;;;;;;;;18.64;60.97;101394.91;7400683;19;1651;-37
2022/05/10 01:12:55;;;;;;;;;;;;;;;18.68;60.65;101401.75;7399828;19;1920;-38
2022/05/10 01:15:27;;;;;;;;;;;;;;;18.64;60.92;101402.06;7401755;19;1641;-37
2022/05/10 01:17:56;;;;;;;;;;;;;;;18.66;60.79;101402.81;7400637;19;1855;-37
2022/05/10 01:20:28;;;;;;;;;;;;;;;18.65;60.71;101395.75;7400874;19;1802;-37
2022/05/10 01:23:00;;;;;;;;;;;;;;;18.63;60.37;101403.91;7399858;19;1830;-37
2022/05/10 01:25:40;;;;;;;;;;;;;;;18.61;60.73;101396.97;7400849;19;1454;-37
2022/05/10 01:28:24;;;;;;;;;;;;;;;18.61;60.30;101380.88;7401101;19;1403;-37
2022/05/10 01:30:53;;;;;;;;;;;;;;;18.63;60.54;101398.53;7400968;19;1730;-37
2022/05/10 01:33:29;;;;;;;;;;;;;;;18.60;60.28;101416.66;7400202;19;1596;-38
2022/05/10 01:36:01;;;;;;;;;;;;;;;18.61;60.23;101396.97;7405464;19;1023;-37
2022/05/10 01:38:33;;;;;;;;;;;;;;;18.60;60.48;101396.13;7404453;19;1846;-38
2022/05/10 01:41:06;;;;;;;;;;;;;;;18.62;60.66;101390.63;7406535;19;2067;-37
2022/05/10 01:43:39;;;;;;;;;;;;;;;18.59;60.42;101407.78;7407299;19;2171;-37
2022/05/10 01:46:13;;;;;;;;;;;;;;;18.62;60.32;101404.88;7407223;19;1789;-37
2022/05/10 01:48:42;;;;;;;;;;;;;;;18.62;60.14;101406.69;7406926;19;1561;-37
2022/05/10 01:51:15;;;;;;;;;;;;;;;18.62;60.09;101395.97;7407747;19;1821;-37
2022/05/10 01:53:44;;;;;;;;;;;;;;;18.65;60.08;101411.81;7404684;19;1578;-37
2022/05/10 01:56:14;;;;;;;;;;;;;;;18.61;60.61;101413.88;7406691;19;1976;-37
2022/05/10 01:58:46;;;;;;;;;;;;;;;18.60;60.16;101403.28;7404895;19;1849;-37
2022/05/10 02:01:18;;;;;;;;;;;;;;;18.62;60.26;101418.28;7397469;19;3365;-55
2022/05/10 02:03:48;;;;;;;;;;;;;;;18.61;60.32;101429.94;7406712;19;1373;-64
2022/05/10 02:06:22;;;;;;;;;;;;;;;18.58;60.28;101419.50;7410329;19;1486;-64
2022/05/10 02:08:53;;;;;;;;;;;;;;;18.55;60.26;101419.72;7409152;19;1368;-64
2022/05/10 02:11:21;;;;;;;;;;;;;;;18.57;60.30;101431.16;7409650;19;1570;-64
2022/05/10 02:13:55;;;;;;;;;;;;;;;18.55;60.49;101438.47;7409521;19;1333;-56
2022/05/10 02:16:26;;;;;;;;;;;;;;;18.58;60.15;101432.00;7408994;19;1344;-63
2022/05/10 02:18:57;;;;;;;;;;;;;;;18.55;60.32;101438.47;7409067;19;1846;-56
2022/05/10 02:21:29;;;;;;;;;;;;;;;18.54;60.29;101431.38;7407587;19;1640;-64
2022/05/10 02:24:01;;;;;;;;;;;;;;;18.55;59.79;101433.09;7408430;19;1488;-56
2022/05/10 02:26:31;;;;;;;;;;;;;;;18.53;60.30;101421.66;7409556;19;1313;-56
2022/05/10 02:29:07;;;;;;;;;;;;;;;18.54;60.05;101433.22;7408771;19;1454;-56
2022/05/10 02:33:06;;;;;;;;;;;;;;;18.56;59.86;101434.81;7407242;19;1357;-56
2022/05/10 02:34:26;;;;;;;;;;;;;;;18.56;59.86;101433.94;7407864;19;1467;-55
2022/05/10 02:36:54;;;;;;;;;;;;;;;18.52;60.37;101427.97;7410041;19;1551;-64
2022/05/10 02:39:23;;;;;;;;;;;;;;;18.49;60.08;101417.50;7406925;19;1867;-64
2022/05/10 02:41:51;;;;;;;;;;;;;;;18.49;59.82;101423.69;7408824;19;1878;-64
2022/05/10 02:44:23;;;;;;;;;;;;;;;18.53;60.10;101432.38;7409777;19;1525;-64
2022/05/10 02:46:51;;;;;;;;;;;;;;;18.52;60.24;101441.34;7408040;19;1310;-64
2022/05/10 02:49:20;;;;;;;;;;;;;;;18.51;59.94;101439.66;7408322;19;1677;-64
2022/05/10 02:51:48;;;;;;;;;;;;;;;18.50;60.02;101429.91;7408909;19;1691;-56
2022/05/10 02:54:17;;;;;;;;;;;;;;;18.48;59.77;101437.19;7406160;19;1550;-64
2022/05/10 02:56:45;;;;;;;;;;;;;;;18.52;60.26;101440.50;7408400;19;1550;-64
2022/05/10 02:59:18;;;;;;;;;;;;;;;18.47;60.24;101446.22;7406965;19;1847;-63
2022/05/10 03:01:53;;;;;;;;;;;;;;;18.44;60.22;101436.59;7406508;19;1756;-56
2022/05/10 03:04:22;;;;;;;;;;;;;;;18.52;60.01;101444.03;7407005;19;1777;-64
2022/05/10 03:06:51;;;;;;;;;;;;;;;18.49;60.00;101439.78;7408741;19;1306;-64
2022/05/10 03:09:20;;;;;;;;;;;;;;;18.47;59.66;101430.16;7406832;19;1743;-57
2022/05/10 03:11:48;;;;;;;;;;;;;;;18.47;59.86;101435.50;7407858;19;1518;-64
2022/05/10 03:14:16;;;;;;;;;;;;;;;18.48;59.85;101442.56;7407430;19;1420;-64
2022/05/10 03:16:45;;;;;;;;;;;;;;;18.49;60.09;101449.63;7406816;19;1325;-56
2022/05/10 03:19:16;;;;;;;;;;;;;;;18.46;59.65;101433.78;7405979;19;1861;-64
2022/05/10 03:21:45;;;;;;;;;;;;;;;18.49;59.69;101445.13;7408925;19;1231;-55
2022/05/10 03:24:13;;;;;;;;;;;;;;;18.44;60.16;101444.63;7406159;19;1298;-55
2022/05/10 03:26:42;;;;;;;;;;;;;;;18.46;59.66;101448.06;7406135;19;1300;-64
2022/05/10 03:29:11;;;;;;;;;;;;;;;18.45;59.66;101448.16;7406607;19;1223;-64
2022/05/10 03:31:39;;;;;;;;;;;;;;;18.46;59.96;101456.09;7406645;19;1423;-56
2022/05/10 03:36:51;;;;;;;;;;;;;;;18.46;59.88;101464.13;7406971;19;1372;-56
2022/05/10 03:39:19;;;;;;;;;;;;;;;18.49;59.72;101463.03;7404676;19;1851;-64
2022/05/10 03:41:47;;;;;;;;;;;;;;;18.43;59.70;101455.47;7407003;19;1527;-64
2022/05/10 03:44:16;;;;;;;;;;;;;;;18.49;59.88;101461.19;7407932;19;1613;-56
2022/05/10 03:46:46;;;;;;;;;;;;;;;18.44;59.77;101462.50;7406300;19;1693;-56
2022/05/10 03:49:15;;;;;;;;;;;;;;;18.47;59.59;101462.28;7406339;19;1739;-55
2022/05/10 03:51:43;;;;;;;;;;;;;;;18.42;59.73;101454.63;7406999;19;1683;-56
2022/05/10 03:54:14;;;;;;;;;;;;;;;18.47;59.73;101451.56;7405347;19;1670;-64
2022/05/10 03:56:43;;;;;;;;;;;;;;;18.43;59.59;101458.97;7405222;19;1790;-64
2022/05/10 03:59:11;;;;;;;;;;;;;;;18.44;59.48;101475.91;7403282;19;1852;-56
2022/05/10 04:01:40;;;;;;;;;;;;;;;18.40;59.34;101451.19;7402513;19;1788;-61
2022/05/10 04:04:08;;;;;;;;;;;;;;;18.45;59.92;101454.38;7404804;19;1633;-56
2022/05/10 04:06:36;;;;;;;;;;;;;;;18.47;59.45;101478.38;7404631;19;1298;-64
2022/05/10 04:09:05;;;;;;;;;;;;;;;18.48;59.32;101474.69;7405094;19;1417;-64
2022/05/10 04:11:36;;;;;;;;;;;;;;;18.46;59.70;101458.78;7405939;19;1538;-56
2022/05/10 04:14:05;;;;;;;;;;;;;;;18.47;59.87;101473.84;7405150;19;1691;-56
2022/05/10 04:16:33;;;;;;;;;;;;;;;18.51;60.14;101470.97;7405132;19;1462;-64
2022/05/10 04:19:02;;;;;;;;;;;;;;;18.46;59.57;101469.47;7404088;19;1856;-64
2022/05/10 04:21:30;;;;;;;;;;;;;;;18.49;59.63;101479.09;7405477;19;1244;-56
2022/05/10 04:23:58;;;;;;;;;;;;;;;18.53;59.61;101466.34;7404731;19;1553;-64
2022/05/10 04:26:27;;;;;;;;;;;;;;;18.52;59.52;101454.75;7405006;19;1262;-58
2022/05/10 04:28:58;;;;;;;;;;;;;;;18.57;60.35;101467.81;7405440;19;1513;-56
2022/05/10 04:31:27;;;;;;;;;;;;;;;18.58;60.99;101459.66;7405176;19;1460;-57
2022/05/10 04:33:55;;;;;;;;;;;;;;;18.62;60.65;101461.16;7405297;19;1417;-64
2022/05/10 04:36:25;;;;;;;;;;;;;;;18.71;60.36;101458.72;7405996;19;1356;-56
2022/05/10 04:38:54;;;;;;;;;;;;;;;18.69;60.83;101465.06;7404548;19;1842;-57
2022/05/10 04:41:25;;;;;;;;;;;;;;;18.77;60.88;101468.97;7403938;19;1684;-60
2022/05/10 04:43:53;;;;;;;;;;;;;;;18.76;61.34;101477.97;7404446;19;1747;-57
2022/05/10 04:46:24;;;;;;;;;;;;;;;18.82;61.57;101466.81;7402643;19;1752;-63
2022/05/10 04:48:53;;;;;;;;;;;;;;;18.80;61.53;101474.13;7405300;19;1600;-59
2022/05/10 04:51:22;;;;;;;;;;;;;;;18.95;61.24;101475.63;7405153;19;1555;-71
2022/05/10 04:53:50;;;;;;;;;;;;;;;18.95;59.84;101472.97;7403095;19;1542;-67
2022/05/10 04:56:19;;;;;;;;;;;;;;;18.98;61.24;101474.53;7403712;19;1617;-68
2022/05/10 04:58:47;;;;;;;;;;;;;;;19.02;61.18;101484.06;7403261;19;1870;-55
2022/05/10 05:01:17;;;;;;;;;;;;;;;19.08;60.94;101479.09;7403325;19;1820;-56
2022/05/10 05:03:48;;;;;;;;;;;;;;;19.02;59.84;101463.47;7404291;19;1531;-68
2022/05/10 05:06:17;;;;;;;;;;;;;;;18.98;60.66;101479.91;7405189;19;1605;-63
2022/05/10 05:08:46;;;;;;;;;;;;;;;19.01;60.44;101493.09;7402837;19;1229;-66
2022/05/10 05:11:14;;;;;;;;;;;;;;;19.01;61.14;101488.56;7411116;19;1448;-59
2022/05/10 05:13:42;;;;;;;;;;;;;;;18.99;61.31;101479.78;7412008;19;1373;-54
2022/05/10 05:16:11;;;;;;;;;;;;;;;19.10;60.93;101481.66;7408172;19;1554;-68
2022/05/10 05:18:39;;;;;;;;;;;;;;;19.11;60.51;101471.78;7406181;19;1853;-57
2022/05/10 05:21:10;;;;;;;;;;;;;;;19.05;60.45;101483.81;7410898;19;1371;-51
2022/05/10 05:23:39;;;;;;;;;;;;;;;19.07;60.03;101493.44;7406063;19;1441;-63
2022/05/10 05:26:07;;;;;;;;;;;;;;;19.03;59.72;101486.63;7407498;19;1290;-60
2022/05/10 05:28:35;;;;;;;;;;;;;;;19.02;60.57;101492.09;7410195;19;1484;-56
2022/05/10 05:31:04;;;;;;;;;;;;;;;19.10;60.78;101488.81;7410294;19;1616;-55
2022/05/10 05:33:32;;;;;;;;;;;;;;;19.04;60.62;101476.78;7407528;19;1325;-67
2022/05/10 05:36:01;;;;;;;;;;;;;;;19.03;60.64;101485.78;7405572;19;1653;-65
2022/05/10 05:38:32;;;;;;;;;;;;;;;18.98;60.39;101482.56;7404741;19;1868;-64
2022/05/10 05:41:01;;;;;;;;;;;;;;;18.95;59.28;101488.19;7407581;19;1767;-55
2022/05/10 05:43:30;;;;;;;;;;;;;;;18.91;59.80;101495.59;7407560;19;1538;-56
2022/05/10 05:45:58;;;;;;;;;;;;;;;18.90;59.35;101475.16;7409086;19;1534;-53
2022/05/10 05:48:26;;;;;;;;;;;;;;;18.93;59.31;101490.97;7409360;19;1616;-67
2022/05/10 05:50:55;;;;;;;;;;;;;;;18.92;59.54;101486.59;7411329;19;1522;-67
2022/05/10 05:53:23;;;;;;;;;;;;;;;18.94;59.37;101494.50;7409114;19;1478;-68
2022/05/10 05:55:54;;;;;;;;;;;;;;;18.94;59.96;101498.06;7410347;19;1377;-54
2022/05/10 05:58:22;;;;;;;;;;;;;;;18.93;60.03;101490.97;7411115;19;1617;-68
2022/05/10 06:00:51;;;;;;;;;;;;;;;18.96;59.83;101480.03;7408740;19;1845;-64
2022/05/10 06:03:19;;;;;;;;;;;;;;;18.96;60.11;101487.19;7410346;19;1541;-53
2022/05/10 06:05:49;;;;;;;;;;;;;;;19.05;59.90;101476.63;7410354;19;1833;-69
2022/05/10 06:08:19;;;;;;;;;;;;;;;19.13;60.56;101499.31;7411709;19;1515;-68
2022/05/10 06:10:50;;;;;;;;;;;;;;;19.21;60.63;101488.84;7411000;19;1893;-54
2022/05/10 06:13:22;;;;;;;;;;;;;;;19.22;61.01;101482.53;7410142;19;1767;-54
2022/05/10 06:15:51;;;;;;;;;;;;;;;19.27;61.63;101486.53;7409544;19;1696;-67
2022/05/10 06:18:20;;;;;;;;;;;;;;;19.32;61.24;101480.84;7409104;19;1530;-55
2022/05/10 06:20:48;;;;;;;;;;;;;;;19.40;61.45;101481.09;7406900;19;1857;-68
2022/05/10 06:23:16;;;;;;;;;;;;;;;19.40;62.45;101475.72;7409645;19;1566;-54
2022/05/10 06:25:45;;;;;;;;;;;;;;;19.41;62.37;101484.63;7409158;19;1539;-54
2022/05/10 06:28:13;;;;;;;;;;;;;;;19.39;62.73;101487.41;7410439;19;1421;-55
2022/05/10 06:30:45;;;;;;;;;;;;;;;19.38;63.80;101477.66;7410001;19;1522;-55
2022/05/10 06:33:13;;;;;;;;;;;;;;;19.40;63.47;101478.41;7409984;19;1533;-74
2022/05/10 06:35:43;;;;;;;;;;;;;;;19.42;64.00;101481.81;7409295;19;1566;-55
2022/05/10 06:38:24;;;;;;;;;;;;;;;19.52;62.77;101478.38;7408359;19;1304;-56
2022/05/10 06:40:53;;;;;;;;;;;;;;;19.58;62.68;101484.13;7406852;19;1834;-55
2022/05/10 06:43:21;;;;;;;;;;;;;;;19.62;62.27;101482.06;7408604;19;1373;-71
2022/05/10 06:45:54;;;;;;;;;;;;;;;19.65;61.93;101471.91;7408691;19;1575;-57
2022/05/10 06:48:22;;;;;;;;;;;;;;;19.75;62.04;101481.97;7409463;19;1537;-57
2022/05/10 06:50:50;;;;;;;;;;;;;;;19.70;61.97;101476.94;7408617;19;1658;-60
2022/05/10 06:53:19;;;;;;;;;;;;;;;19.69;61.73;101467.19;7405589;19;1746;-65
2022/05/10 06:55:47;;;;;;;;;;;;;;;19.62;60.71;101476.72;7407198;19;1505;-54
2022/05/10 06:58:15;;;;;;;;;;;;;;;19.48;60.73;101484.00;7407967;19;1460;-56
2022/05/10 07:00:44;;;;;;;;;;;;;;;19.35;58.73;101475.22;7406049;19;1852;-72
2022/05/10 07:03:16;;;;;;;;;;;;;;;19.38;60.08;101469.63;7408050;19;1577;-55
2022/05/10 07:05:45;;;;;;;;;;;;;;;19.42;60.05;101472.94;7409003;19;1530;-55
2022/05/10 07:08:13;;;;;;;;;;;;;;;19.42;60.45;101492.53;7409477;19;1495;-54
2022/05/10 07:10:42;;;;;;;;;;;;;;;19.42;60.83;101480.97;7407856;19;1779;-54
2022/05/10 07:13:10;;;;;;;;;;;;;;;19.40;60.47;101480.25;7408263;19;1668;-54
2022/05/10 07:15:39;;;;;;;;;;;;;;;19.39;60.94;101487.41;7408099;19;1541;-73
2022/05/10 07:18:07;;;;;;;;;;;;;;;19.37;60.90;101492.03;7408076;19;1608;-73
2022/05/10 07:20:38;;;;;;;;;;;;;;;19.36;60.92;101492.16;7406199;19;1845;-59
2022/05/10 07:23:07;;;;;;;;;;;;;;;19.34;60.87;101484.25;7407090;19;1407;-72
2022/05/10 07:25:35;;;;;;;;;;;;;;;19.34;60.97;101499.47;7407125;19;1428;-54
2022/05/10 07:28:05;;;;;;;;;;;;;;;19.31;60.89;101497.88;7405861;19;1606;-54
2022/05/10 07:30:34;;;;;;;;;;;;;;;19.30;60.82;101501.56;7405798;19;1519;-54
2022/05/10 07:33:02;;;;;;;;;;;;;;;19.33;61.14;101509.34;7404332;19;1530;-72
2022/05/10 07:38:14;;;;;;;;;;;;;;;19.27;61.20;101494.59;7407531;19;1557;-72
2022/05/10 07:40:44;;;;;;;;;;;;;;;19.25;61.38;101503.72;7405321;19;1852;-69
2022/05/10 07:43:13;;;;;;;;;;;;;;;19.26;61.59;101510.81;7406372;19;1533;-55
2022/05/10 07:45:42;;;;;;;;;;;;;;;19.21;61.48;101510.31;7407438;19;1569;-55
2022/05/10 07:48:10;;;;;;;;;;;;;;;19.23;61.25;101513.72;7406833;19;1603;-73
2022/05/10 07:50:39;;;;;;;;;;;;;;;19.19;61.28;101514.94;7407276;19;1563;-54
2022/05/10 07:53:08;;;;;;;;;;;;;;;19.19;61.03;101507.72;7405740;19;1388;-72
2022/05/10 07:55:39;;;;;;;;;;;;;;;19.17;61.44;101508.84;7407070;19;1199;-72
2022/05/10 07:58:09;;;;;;;;;;;;;;;19.16;61.46;101509.78;7406666;19;1586;-72
2022/05/10 08:00:38;;;;;;;;;;;;;;;19.17;60.95;101519.56;7405351;19;1857;-55
2022/05/10 08:03:10;;;;;;;;;;;;;;;19.13;60.99;101500.16;7407037;19;1549;-54
2022/05/10 08:05:38;;;;;;;;;;;;;;;19.08;60.86;101491.66;7407119;19;1270;-72
2022/05/10 08:08:07;;;;;;;;;;;;;;;19.13;61.38;101486.75;7405823;19;1472;-69
2022/05/10 08:10:36;;;;;;;;;;;;;;;19.18;61.44;101511.41;7406023;19;1481;-69
2022/05/10 08:13:10;;;;;;;;;;;;;;;19.18;61.44;101495.31;7404851;19;1547;-68
2022/05/10 08:15:39;;;;;;;;;;;;;;;19.20;61.35;101492.50;7405937;19;1534;-55
2022/05/10 08:18:08;;;;;;;;;;;;;;;19.16;61.35;101507.13;7406125;19;1611;-68
2022/05/10 08:20:36;;;;;;;;;;;;;;;19.17;61.28;101507.00;7405426;19;1857;-68
2022/05/10 08:23:06;;;;;;;;;;;;;;;19.16;61.39;101485.66;7405822;19;1541;-68
2022/05/10 08:25:34;;;;;;;;;;;;;;;19.18;61.34;101505.16;7406416;19;1362;-55
2022/05/10 08:28:03;;;;;;;;;;;;;;;19.20;61.24;101497.84;7405592;19;1597;-55
2022/05/10 08:30:34;;;;;;;;;;;;;;;19.18;61.52;101505.16;7404891;19;1566;-56
2022/05/10 08:33:02;;;;;;;;;;;;;;;19.21;61.88;101494.22;7405615;19;1378;-70
2022/05/10 08:35:30;;;;;;;;;;;;;;;19.20;61.79;101487.13;7405011;19;1642;-59
2022/05/10 08:37:58;;;;;;;;;;;;;;;19.19;61.68;101480.06;7404129;19;1356;-65
2022/05/10 08:40:30;;;;;;;;;;;;;;;19.22;61.92;101501.31;7402474;19;1836;-64
2022/05/10 08:43:01;;;;;;;;;;;;;;;19.20;61.82;101497.84;7404242;19;1546;-62
2022/05/10 08:45:30;;;;;;;;;;;;;;;19.22;61.68;101496.78;7404685;19;1361;-53
2022/05/10 08:48:01;;;;;;;;;;;;;;;19.24;62.28;101504.72;7404588;19;1648;-66
2022/05/10 08:50:29;;;;;;;;;;;;;;;19.27;62.58;101515.19;7402835;19;1512;-56
2022/05/10 08:52:58;;;;;;;;;;;;;;;19.31;61.89;101510.44;7401979;19;1748;-55
2022/05/10 08:55:28;;;;;;;;;;;;;;;19.28;62.43;101496.31;7404299;19;1472;-65
2022/05/10 08:58:02;;;;;;;;;;;;;;;19.31;61.93;101495.19;7405062;19;1514;-52
2022/05/10 09:00:33;;;;;;;;;;;;;;;19.30;62.46;101493.50;7403674;19;1866;-70
2022/05/10 09:03:14;;;;;;;;;;;;;;;19.35;62.36;101491.31;7404933;19;1371;-70
2022/05/10 09:05:44;;;;;;;;;;;;;;;19.34;62.38;101484.25;7405737;19;1067;-55
2022/05/10 09:08:20;;;;;;;;;;;;;;;19.34;62.10;101500.34;7403152;19;1555;-55
2022/05/10 09:10:51;;;;;;;;;;;;;;;19.32;62.42;101502.28;7403625;19;1409;-55
2022/05/10 09:13:20;;;;;;;;;;;;;;;19.28;62.28;101512.41;7404724;19;1768;-55
2022/05/10 09:15:50;;;;;;;;;;;;;;;19.28;62.20;101496.31;7403443;19;1664;-56
2022/05/10 09:18:22;;;;;;;;;;;;;;;19.27;62.27;101496.41;7403133;19;1518;-67
2022/05/10 09:20:55;;;;;;;;;;;;;;;19.27;62.38;101499.94;7402831;19;1853;-64
2022/05/10 09:23:27;;;;;;;;;;;;;;;19.24;61.87;101494.84;7404156;19;1575;-56
2022/05/10 09:25:57;;;;;;;;;;;;;;;19.28;61.92;101503.50;7403626;19;1587;-67
2022/05/10 09:28:30;;;;;;;;;;;;;;;19.27;62.01;101493.75;7404231;19;1423;-67
2022/05/10 09:36:49;;;;;;;;;;;;;;;19.30;61.69;101500.69;7405018;19;1538;-60
2022/05/10 09:39:32;;;;;;;;;;;;;;;19.31;62.12;101491.69;7402469;19;1500;-67
2022/05/10 09:42:01;;;;;;;;;;;;;;;19.33;61.85;101484.38;7401446;19;1847;-67
2022/05/10 09:44:30;;;;;;;;;;;;;;;19.33;61.96;101484.38;7403614;19;1347;-66
2022/05/10 09:47:12;;;;;;;;;;;;;;;19.33;61.81;101490.56;7403124;19;1624;-66
2022/05/10 09:49:43;;;;;;;;;;;;;;;19.31;61.96;101472.91;7402879;19;1577;-66
2022/05/10 09:52:19;;;;;;;;;;;;;;;19.35;61.80;101469.00;7404670;19;987;-55
2022/05/10 09:54:48;;;;;;;;;;;;;;;19.35;62.08;101469.84;7402975;19;1665;-67
2022/05/10 09:57:27;;;;;;;;;;;;;;;19.30;62.23;101460.47;7407699;19;1760;-56
2022/05/10 09:59:55;;;;;;;;;;;;;;;19.32;62.04;101469.22;7410386;19;1843;-55
2022/05/10 10:02:32;;;;;;;;;;;;;;;19.29;62.00;101464.97;7408366;19;1614;-66
2022/05/10 10:05:19;;;;;;;;;;;;;;;19.30;61.96;101466.69;7410785;19;1338;-67
2022/05/10 10:07:50;;;;;;;;;;;;;;;19.30;61.66;101472.06;7408403;19;1654;-66
2022/05/10 10:10:20;;;;;;;;;;;;;;;19.31;62.05;101473.75;7410474;19;1577;-66
2022/05/10 10:12:48;;;;;;;;;;;;;;;19.32;62.11;101458.50;7410024;19;1617;-55
2022/05/10 10:15:28;;;;;;;;;;;;;;;19.30;62.01;101466.69;7410656;19;1616;-62
2022/05/10 10:17:57;;;;;;;;;;;;;;;19.31;61.92;101452.28;7410399;19;1312;-66
2022/05/10 10:20:32;;;;;;;;;;;;;;;19.29;61.74;101448.88;7409113;19;1846;-55
2022/05/10 10:23:03;;;;;;;;;;;;;;;19.29;61.81;101443.53;7409699;19;1543;-67
2022/05/10 10:25:35;;;;;;;;;;;;;;;19.29;61.82;101448.88;7409745;19;1749;-56
2022/05/10 10:28:05;;;;;;;;;;;;;;;19.32;61.83;101454.03;7410156;19;1608;-55
2022/05/10 10:30:36;;;;;;;;;;;;;;;19.32;61.57;101454.03;7408776;19;1534;-66
2022/05/10 10:33:08;;;;;;;;;;;;;;;19.31;61.53;101449.63;7409829;19;1304;-66
2022/05/10 10:35:41;;;;;;;;;;;;;;;19.32;61.65;101454.03;7411031;19;1032;-55
2022/05/10 10:38:15;;;;;;;;;;;;;;;19.31;61.76;101457.66;7408466;19;1705;-55
2022/05/10 10:40:45;;;;;;;;;;;;;;;19.32;61.73;101445.97;7407964;19;1849;-55
2022/05/10 10:43:19;;;;;;;;;;;;;;;19.30;61.79;101429.16;7408664;19;1547;-66
2022/05/10 10:45:48;;;;;;;;;;;;;;;19.35;61.72;101453.75;7408890;19;1372;-66
2022/05/10 10:48:21;;;;;;;;;;;;;;;19.30;61.76;101439.88;7409687;19;1332;-55
2022/05/10 10:50:52;;;;;;;;;;;;;;;19.29;61.59;101430.13;7410071;19;1384;-66
2022/05/10 10:53:22;;;;;;;;;;;;;;;19.30;62.11;101423.78;7405030;19;1543;-66
2022/05/10 10:55:58;;;;;;;;;;;;;;;19.30;62.06;101439.88;7408778;19;1561;-54
2022/05/10 10:58:32;;;;;;;;;;;;;;;19.33;61.81;101433.41;7406910;19;1274;-56
2022/05/10 11:01:09;;;;;;;;;;;;;;;19.34;61.76;101440.47;7407761;19;1842;-66
2022/05/10 11:03:43;;;;;;;;;;;;;;;19.31;61.45;101430.84;7407930;19;1455;-55
2022/05/10 11:06:24;;;;;;;;;;;;;;;19.33;61.65;101433.41;7408346;19;1518;-55
2022/05/10 11:09:08;;;;;;;;;;;;;;;19.34;61.96;101429.75;7407234;19;1314;-55
2022/05/10 11:11:47;;;;;;;;;;;;;;;19.32;62.10;101415.59;7406730;19;1520;-66
2022/05/10 11:14:23;;;;;;;;;;;;;;;19.27;62.21;101422.19;7406923;19;1624;-55
2022/05/10 11:16:58;;;;;;;;;;;;;;;19.28;62.03;101406.97;7406531;19;1292;-67
2022/05/10 11:19:39;;;;;;;;;;;;;;;19.32;62.11;101413.78;7407862;19;1506;-67
2022/05/10 11:22:17;;;;;;;;;;;;;;;19.32;61.58;101423.66;7406844;19;1853;-55
2022/05/10 11:24:50;;;;;;;;;;;;;;;19.39;61.94;101404.25;7406582;19;1576;-56
2022/05/10 11:27:27;;;;;;;;;;;;;;;19.36;62.01;101403.66;7406444;19;1744;-54
2022/05/10 11:30:00;;;;;;;;;;;;;;;19.38;62.16;101410.63;7406408;19;1678;-62
2022/05/10 11:32:34;;;;;;;;;;;;;;;19.44;61.91;101415.50;7407477;19;1731;-71
2022/05/10 11:35:10;;;;;;;;;;;;;;;19.44;61.56;101396.72;7406968;19;1431;-55
2022/05/10 11:37:45;;;;;;;;;;;;;;;19.41;61.71;101394.25;7408007;19;1514;-71
2022/05/10 11:40:31;;;;;;;;;;;;;;;19.41;61.65;101405.00;7406613;19;1434;-56
2022/05/10 11:43:18;;;;;;;;;;;;;;;19.38;62.10;101397.22;7405881;19;1570;-56
2022/05/10 11:46:09;;;;;;;;;;;;;;;19.36;62.05;101385.75;7407057;19;1526;-73
2022/05/10 11:48:56;;;;;;;;;;;;;;;19.40;62.04;101392.56;7406274;19;1614;-68
2022/05/10 11:51:42;;;;;;;;;;;;;;;19.43;61.36;101384.25;7408772;19;945;-73
2022/05/10 11:54:32;;;;;;;;;;;;;;;19.39;61.74;101382.81;7404848;19;1630;-54
2022/05/10 11:57:01;;;;;;;;;;;;;;;19.39;61.82;101379.28;7405254;19;1557;-64
2022/05/10 11:59:31;;;;;;;;;;;;;;;19.39;62.03;101368.56;7406511;19;1617;-53
2022/05/10 12:02:00;;;;;;;;;;;;;;;19.42;61.78;101379.91;7405201;19;1873;-65
2022/05/10 12:04:41;;;;;;;;;;;;;;;19.45;61.98;101352.81;7405912;19;1704;-53
2022/05/10 12:07:25;;;;;;;;;;;;;;;19.63;62.09;101363.03;7406321;19;1533;-55
2022/05/10 12:10:00;;;;;;;;;;;;;;;19.54;62.16;101361.13;7406512;19;1463;-62
2022/05/10 12:12:43;;;;;;;;;;;;;;;19.43;62.03;101338.66;7406356;19;1704;-56
2022/05/10 12:23:45;;;;;;;;;;;;;;;19.46;62.04;101329.53;7405455;19;1576;-55
2022/05/10 12:26:34;;;;;;;;;;;;;;;19.43;61.91;101337.81;7404789;19;1336;-60
2022/05/10 12:29:04;;;;;;;;;;;;;;;19.42;62.30;101322.72;7403945;19;1588;-54
2022/05/10 12:31:53;;;;;;;;;;;;;;;19.54;62.27;101328.94;7404385;19;1297;-62
2022/05/10 12:34:36;;;;;;;;;;;;;;;19.50;62.37;101311.34;7405094;19;1297;-58
2022/05/10 12:37:21;;;;;;;;;;;;;;;19.50;62.12;101306.84;7402857;19;1388;-62
2022/05/10 12:39:54;;;;;;;;;;;;;;;19.59;62.24;101321.34;7403883;19;1422;-61
2022/05/10 12:42:31;;;;;;;;;;;;;;;19.58;62.23;101308.91;7403513;19;1874;-64
2022/05/10 12:45:05;;;;;;;;;;;;;;;19.51;62.51;101303.19;7404556;19;1840;-55
2022/05/10 12:47:48;;;;;;;;;;;;;;;19.47;62.51;101307.94;7403090;19;1485;-55
2022/05/10 12:50:23;;;;;;;;;;;;;;;19.48;62.55;101293.56;7403394;19;1657;-55
2022/05/10 12:52:51;;;;;;;;;;;;;;;19.51;62.00;101291.59;7401326;19;1579;-70
2022/05/10 12:55:22;;;;;;;;;;;;;;;19.50;62.03;101303.28;7402645;19;1488;-57
2022/05/10 12:57:58;;;;;;;;;;;;;;;19.56;61.96;101287.56;7402676;19;1530;-55
2022/05/10 13:00:27;;;;;;;;;;;;;;;19.67;61.77;101292.03;7403316;19;1319;-56
2022/05/10 13:03:01;;;;;;;;;;;;;;;19.67;61.38;101300.94;7402047;19;1855;-57
2022/05/10 13:05:44;;;;;;;;;;;;;;;19.65;61.69;101283.25;7403586;19;1094;-70
2022/05/10 13:08:22;;;;;;;;;;;;;;;19.60;61.82;101286.34;7401806;19;1399;-68
2022/05/10 13:10:50;;;;;;;;;;;;;;;19.58;61.81;101276.72;7403857;19;1500;-66
2022/05/10 13:13:26;;;;;;;;;;;;;;;19.56;62.24;101279.53;7402433;19;1276;-64
2022/05/10 13:15:55;;;;;;;;;;;;;;;19.52;62.21;101277.19;7402530;19;1362;-67
2022/05/10 13:18:25;;;;;;;;;;;;;;;19.50;62.32;101263.06;7402633;19;1222;-59
2022/05/10 13:20:55;;;;;;;;;;;;;;;19.50;62.23;101279.16;7403534;19;1853;-67
2022/05/10 13:23:28;;;;;;;;;;;;;;;19.48;62.41;101247.13;7401713;19;1348;-65
2022/05/10 13:25:57;;;;;;;;;;;;;;;19.47;62.27;101256.97;7400436;19;1281;-64
2022/05/10 13:28:28;;;;;;;;;;;;;;;19.49;61.81;101248.81;7401867;19;1348;-66